Accueil
METAR-TAF:

METAR-TAF

Aéroports :

Army Air Corps Middle Wallop

Middle Wallop, Angleterre

latitude: 51-09N, longitude: 001-34W, altitude: 91 m

Observation

Le bulletin a été fait il y a 22 minutes, à 17:50 UTC
Vent 3 kt de est/nord-est
Température 3°C
Humidité 93%
Pression 1028 hPa
Visibilité: 0150 m
brouillard

METAR: EGVP 011750Z AUTO 07003KT 0150 FG OVC001/// 03/02 Q1028

Heure: 18:12 (18:12 UTC)

Prévision

Le bulletin a été fait il y a 2 heures et 56 minutes, à 15:16 UTC
Prévision valable du 01 à 15 UTC au 01 à 19 UTC
Vent 2 kt de est/nord-est
Visibilité 10 km ou plus
Quelques nuages à une hauteur de 400 ft
Evoluant progressivement
du 01 à 15 UTC au 01 à 18 UTC
Visibilité: 1500 m
brume
Probabilité 40%
du 01 à 15 UTC au 01 à 19 UTC
Visibilité: 0200 m
Nuages fragmentés à une hauteur de 100 ft
brouillard

TAF: EGVP 011516Z 0115/0119 06002KT 9999 FEW004 BECMG 0115/0118 1500 BR PROB40 0115/0119 0200 FG BKN001

Observations et prévisions météorologiques de plus de 4000 aéroports (messages METAR et TAF).

Les stations disponibles sont représentées par des disques jaunes et rouges sur la carte.

Passer la souris dessus pour voir le nom de la station.

Cliquer dessus pour voir les observations et prévisions météorologiques.

Pour changer de carte: cliquez sur les boutons verts avec une croix noire pour zoomer, sur le bouton vert avec un tiret pour effectuer un zoom arrière, ou sur les flèches vertes pour les cartes adjacentes.


METAR-TAF: